createdAt,value
2023-02-02T00:01:54.895Z,100.00
2023-02-02T00:04:26.015Z,100.00
2023-02-02T00:06:57.187Z,100.00
2023-02-02T00:09:29.087Z,100.00
2023-02-02T00:12:00.991Z,100.00
2023-02-02T00:14:29.541Z,100.00
2023-02-02T00:16:59.076Z,100.00
2023-02-02T00:19:30.286Z,100.00
2023-02-02T00:21:59.527Z,100.00
2023-02-02T00:24:28.333Z,100.00
2023-02-02T00:27:00.708Z,100.00
2023-02-02T00:29:32.451Z,100.00
2023-02-02T00:32:01.009Z,100.00
2023-02-02T00:34:29.436Z,100.00
2023-02-02T00:36:57.903Z,100.00
2023-02-02T00:39:27.534Z,100.00
2023-02-02T00:41:56.247Z,100.00
2023-02-02T00:44:43.887Z,100.00
2023-02-02T00:47:12.474Z,100.00
2023-02-02T00:49:40.952Z,100.00
2023-02-02T00:52:09.450Z,100.00
2023-02-02T00:54:37.862Z,100.00
2023-02-02T00:57:06.455Z,100.00
2023-02-02T00:59:36.233Z,100.00
2023-02-02T01:02:04.659Z,100.00
2023-02-02T01:04:33.145Z,100.00
2023-02-02T01:07:01.639Z,100.00
2023-02-02T01:09:30.327Z,100.00
2023-02-02T01:11:59.356Z,100.00
2023-02-02T01:14:28.419Z,100.00
2023-02-02T01:16:58.639Z,100.00
2023-02-02T01:19:30.124Z,100.00
2023-02-02T01:21:58.766Z,100.00
2023-02-02T01:24:27.447Z,100.00
2023-02-02T01:26:55.969Z,100.00
2023-02-02T01:29:24.621Z,100.00
2023-02-02T01:31:53.250Z,100.00
2023-02-02T01:34:23.389Z,100.00
2023-02-02T01:36:51.880Z,100.00
2023-02-02T01:39:20.585Z,100.00
2023-02-02T01:41:49.401Z,100.00
2023-02-02T01:45:21.148Z,100.00
2023-02-02T01:47:54.073Z,100.00
2023-02-02T01:50:29.838Z,100.00
2023-02-02T01:53:03.399Z,100.00
2023-02-02T01:55:35.892Z,100.00
2023-02-02T01:58:08.840Z,100.00
2023-02-02T02:00:38.021Z,100.00
2023-02-02T02:03:12.520Z,100.00
2023-02-02T02:05:48.105Z,100.00
2023-02-02T02:08:20.716Z,100.00
2023-02-02T02:10:49.303Z,100.00
2023-02-02T02:13:19.409Z,100.00
2023-02-02T02:16:17.476Z,100.00
2023-02-02T02:18:59.144Z,100.00
2023-02-02T02:22:12.190Z,100.00
2023-02-02T02:25:40.105Z,100.00
2023-02-02T02:28:59.465Z,100.00
2023-02-02T02:32:01.342Z,100.00
2023-02-02T02:34:49.188Z,100.00
2023-02-02T02:37:30.837Z,100.00
2023-02-02T02:40:11.275Z,100.00
2023-02-02T02:42:46.681Z,100.00
2023-02-02T02:45:16.144Z,100.00
2023-02-02T02:47:46.370Z,100.00
2023-02-02T02:50:14.930Z,100.00
2023-02-02T02:52:43.793Z,100.00
2023-02-02T02:55:13.863Z,100.00
2023-02-02T02:58:08.541Z,100.00
2023-02-02T03:01:03.823Z,100.00
2023-02-02T05:19:49.656Z,100.00
2023-02-02T05:22:18.573Z,100.00
2023-02-02T05:24:47.316Z,100.00
2023-02-02T05:27:15.876Z,100.00
2023-02-02T05:29:44.215Z,100.00
2023-02-02T05:32:12.565Z,100.00
2023-02-02T05:34:40.955Z,100.00
2023-02-02T05:37:10.762Z,100.00
2023-02-02T05:39:39.148Z,100.00
2023-02-02T05:42:07.644Z,100.00
2023-02-02T05:44:35.983Z,100.00
2023-02-02T05:47:04.313Z,100.00
2023-02-02T05:49:32.738Z,100.00
2023-02-02T05:52:01.620Z,100.00
2023-02-02T05:54:31.286Z,100.00
2023-02-02T05:57:01.313Z,100.00
2023-02-02T05:59:29.600Z,100.00
2023-02-02T06:01:57.965Z,100.00
2023-02-02T06:04:26.269Z,100.00
2023-02-02T06:06:54.677Z,100.00
2023-02-02T06:09:23.816Z,100.00
2023-02-02T06:11:53.509Z,100.00
2023-02-02T06:14:22.862Z,100.00
2023-02-02T06:16:51.421Z,100.00
2023-02-02T06:19:21.020Z,100.00
2023-02-02T06:21:49.453Z,100.00
2023-02-02T06:24:18.464Z,100.00
2023-02-02T06:26:48.518Z,100.00
2023-02-02T06:29:19.451Z,100.00
2023-02-02T06:31:48.074Z,100.00
2023-02-02T06:34:17.600Z,100.00
2023-02-02T06:36:45.932Z,100.00
2023-02-02T06:39:14.248Z,100.00
2023-02-02T06:41:44.828Z,100.00
2023-02-02T06:44:17.211Z,100.00
2023-02-02T06:46:46.898Z,100.00
2023-02-02T06:49:15.297Z,100.00
2023-02-02T06:51:43.669Z,100.00
2023-02-02T06:54:12.113Z,100.00
2023-02-02T06:56:40.552Z,100.00
2023-02-02T06:59:09.284Z,100.00
2023-02-02T07:01:37.880Z,100.00
2023-02-02T07:04:07.614Z,100.00
2023-02-02T07:06:36.010Z,100.00
2023-02-02T07:09:04.409Z,100.00
2023-02-02T07:11:37.365Z,100.00
2023-02-02T07:14:11.219Z,100.00
2023-02-02T07:16:39.592Z,100.00
2023-02-02T07:19:09.703Z,100.00
2023-02-02T07:21:38.009Z,100.00
2023-02-02T07:24:08.339Z,100.00
2023-02-02T07:26:37.210Z,100.00
2023-02-02T07:29:06.719Z,100.00
2023-02-02T07:31:36.814Z,100.00
2023-02-02T07:34:05.817Z,100.00
2023-02-02T07:36:35.671Z,100.00
2023-02-02T07:39:07.820Z,100.00
2023-02-02T07:41:37.788Z,100.00
2023-02-02T07:44:07.339Z,100.00
2023-02-02T07:46:35.766Z,100.00
2023-02-02T07:49:06.145Z,100.00
2023-02-02T07:51:38.038Z,100.00
2023-02-02T07:54:07.982Z,100.00
2023-02-02T07:56:36.672Z,100.00
2023-02-02T07:59:05.782Z,100.00
2023-02-02T08:01:34.458Z,100.00
2023-02-02T08:04:03.501Z,100.00
2023-02-02T08:06:35.865Z,100.00
2023-02-02T08:09:08.783Z,100.00
2023-02-02T08:11:41.794Z,100.00
2023-02-02T08:14:13.936Z,100.00
2023-02-02T08:16:42.235Z,100.00
2023-02-02T08:19:11.960Z,100.00
2023-02-02T08:21:41.663Z,100.00
2023-02-02T08:24:10.221Z,100.00
2023-02-02T08:26:38.666Z,100.00
2023-02-02T08:29:09.335Z,100.00
2023-02-02T08:31:41.919Z,100.00
2023-02-02T08:34:11.825Z,100.00
2023-02-02T08:36:42.211Z,100.00
2023-02-02T08:39:14.489Z,100.00
2023-02-02T08:41:42.984Z,100.00
2023-02-02T08:44:15.629Z,100.00
2023-02-02T08:46:43.882Z,100.00
2023-02-02T08:49:13.859Z,100.00
2023-02-02T08:51:43.773Z,100.00
2023-02-02T08:54:12.239Z,100.00
2023-02-02T08:56:40.571Z,100.00
2023-02-02T08:59:09.080Z,100.00
2023-02-02T09:01:37.558Z,100.00
2023-02-02T09:04:10.299Z,100.00
2023-02-02T09:06:43.878Z,100.00
2023-02-02T09:09:16.269Z,100.00
2023-02-02T09:11:46.145Z,100.00
2023-02-02T09:14:15.882Z,100.00
2023-02-02T09:16:44.459Z,100.00
2023-02-02T09:19:13.507Z,100.00
2023-02-02T09:21:43.496Z,100.00
2023-02-02T09:24:15.153Z,100.00
2023-02-02T09:26:45.508Z,100.00
2023-02-02T09:29:19.331Z,100.00
2023-02-02T09:31:48.203Z,100.00
2023-02-02T09:34:18.542Z,100.00
2023-02-02T09:36:48.559Z,100.00
2023-02-02T09:39:18.562Z,100.00
2023-02-02T09:42:33.257Z,100.00
2023-02-02T09:45:09.622Z,100.00
2023-02-02T09:47:55.683Z,100.00
2023-02-02T09:50:49.509Z,98.90
2023-02-02T09:53:28.931Z,97.78
2023-02-02T09:56:01.625Z,97.21
2023-02-02T09:58:35.921Z,96.29
2023-02-02T10:01:10.995Z,94.91
2023-02-02T10:03:49.216Z,93.63
2023-02-02T10:06:33.921Z,92.66
2023-02-02T10:09:22.720Z,92.18
2023-02-02T10:11:59.407Z,90.66
2023-02-02T10:14:34.687Z,90.17
2023-02-02T10:17:27.431Z,90.66
2023-02-02T10:20:05.057Z,91.25
2023-02-02T10:22:35.828Z,91.72
2023-02-02T10:25:06.483Z,90.64
2023-02-02T10:27:40.268Z,90.82
2023-02-02T10:30:22.852Z,90.94
2023-02-02T10:33:07.037Z,90.87
2023-02-02T10:35:48.288Z,89.52
2023-02-02T10:38:28.345Z,87.20
2023-02-02T10:41:13.655Z,87.38
2023-02-02T10:44:07.451Z,86.89
2023-02-02T10:46:42.917Z,86.60
2023-02-02T10:49:27.194Z,86.36
2023-02-02T10:52:05.611Z,87.10
2023-02-02T10:54:57.248Z,89.58
2023-02-02T10:57:50.375Z,89.51
2023-02-02T11:00:26.919Z,88.88
2023-02-02T11:02:56.182Z,88.65
2023-02-02T11:05:48.140Z,88.28
2023-02-02T11:08:21.103Z,88.25
2023-02-02T11:10:55.751Z,87.32
2023-02-02T11:13:33.520Z,87.71
2023-02-02T11:16:42.227Z,87.65
2023-02-02T11:19:30.460Z,89.40
2023-02-02T11:22:02.147Z,89.77
2023-02-02T11:24:36.579Z,90.52
2023-02-02T11:27:13.901Z,90.34
2023-02-02T11:29:48.317Z,90.44
2023-02-02T11:32:27.473Z,91.12
2023-02-02T11:35:23.352Z,91.95
2023-02-02T11:38:10.742Z,91.90
2023-02-02T11:40:43.253Z,92.34
2023-02-02T11:43:19.701Z,91.06
2023-02-02T11:45:57.173Z,91.09
2023-02-02T11:48:33.617Z,90.81
2023-02-02T11:51:03.277Z,90.19
2023-02-02T11:53:34.620Z,89.28
2023-02-02T11:56:08.726Z,89.09
2023-02-02T11:58:47.435Z,89.10
2023-02-02T12:01:28.386Z,90.37
2023-02-02T12:03:59.272Z,89.51
2023-02-02T12:06:36.142Z,89.01
2023-02-02T12:09:14.161Z,89.31
2023-02-02T12:11:58.700Z,88.90
2023-02-02T12:14:35.526Z,88.06
2023-02-02T12:17:16.390Z,87.80
2023-02-02T12:20:13.090Z,88.39
2023-02-02T12:23:05.329Z,87.08
2023-02-02T12:26:15.137Z,87.06
2023-02-02T12:29:09.084Z,87.25
2023-02-02T12:31:56.952Z,87.59
2023-02-02T12:34:43.434Z,87.89
2023-02-02T12:37:26.775Z,88.79
2023-02-02T12:40:21.280Z,89.66
2023-02-02T12:43:12.033Z,90.17
2023-02-02T12:46:12.014Z,89.97
2023-02-02T12:49:08.794Z,89.84
2023-02-02T12:51:54.569Z,90.21
2023-02-02T12:54:57.264Z,90.03
2023-02-02T12:57:45.436Z,90.72
2023-02-02T13:00:42.723Z,92.11
2023-02-02T13:03:32.989Z,92.30
2023-02-02T13:06:34.487Z,92.92
2023-02-02T13:09:13.470Z,93.99
2023-02-02T13:11:50.006Z,94.77
2023-02-02T13:14:27.586Z,95.23
2023-02-02T13:17:03.843Z,95.76
2023-02-02T13:19:42.149Z,95.75
2023-02-02T13:22:19.997Z,96.23
2023-02-02T13:24:56.377Z,96.40
2023-02-02T13:27:26.593Z,97.29
2023-02-02T13:30:03.332Z,97.56
2023-02-02T13:32:37.468Z,97.73
2023-02-02T13:35:18.355Z,97.89
2023-02-02T13:37:55.598Z,97.37
2023-02-02T13:40:35.365Z,97.30
2023-02-02T13:43:29.890Z,96.34
2023-02-02T13:46:13.970Z,95.35
2023-02-02T13:48:58.801Z,93.97
2023-02-02T13:51:55.102Z,94.62
2023-02-02T13:55:19.750Z,94.26
2023-02-02T13:58:36.383Z,94.87
2023-02-02T14:01:10.262Z,95.35
2023-02-02T14:03:41.539Z,95.53
2023-02-02T14:06:17.355Z,95.44
2023-02-02T14:08:54.854Z,95.05
2023-02-02T14:11:30.422Z,95.23
2023-02-02T14:14:27.548Z,95.71
2023-02-02T14:16:56.926Z,95.31
2023-02-02T14:19:53.205Z,94.59
2023-02-02T14:22:43.398Z,94.12
2023-02-02T14:25:53.505Z,94.02
2023-02-02T14:28:48.598Z,93.80
2023-02-02T14:31:54.459Z,93.94
2023-02-02T14:34:35.039Z,94.25
2023-02-02T14:37:35.795Z,94.17
2023-02-02T14:40:30.996Z,94.30
2023-02-02T14:43:37.475Z,94.14
2023-02-02T14:46:40.339Z,93.86
2023-02-02T14:49:26.034Z,93.37
2023-02-02T14:52:05.564Z,93.81
2023-02-02T14:54:40.282Z,94.37
2023-02-02T14:57:28.044Z,94.65
2023-02-02T15:00:01.355Z,94.91
2023-02-02T15:02:36.401Z,95.22
2023-02-02T15:05:46.451Z,95.30
2023-02-02T15:08:26.124Z,95.40
2023-02-02T15:11:26.281Z,95.63
2023-02-02T15:14:24.440Z,96.11
2023-02-02T15:16:53.920Z,96.26
2023-02-02T15:19:35.716Z,96.57
2023-02-02T15:22:27.576Z,97.33
2023-02-02T15:24:59.344Z,97.86
2023-02-02T15:27:29.546Z,98.53
2023-02-02T15:30:05.386Z,99.20
2023-02-02T15:32:35.507Z,99.64
2023-02-02T15:35:13.759Z,100.00
2023-02-02T15:37:49.135Z,100.00
2023-02-02T15:40:25.177Z,100.00
2023-02-02T15:43:00.368Z,100.00
2023-02-02T15:45:48.589Z,100.00
2023-02-02T15:48:30.059Z,100.00
2023-02-02T15:51:04.107Z,100.00
2023-02-02T15:53:49.837Z,100.00
2023-02-02T15:56:30.609Z,100.00
2023-02-02T15:59:01.786Z,100.00
2023-02-02T16:01:45.219Z,100.00
2023-02-02T16:04:22.684Z,100.00
2023-02-02T16:06:51.772Z,100.00
2023-02-02T16:09:28.098Z,100.00
2023-02-02T16:11:57.021Z,100.00
2023-02-02T16:14:26.129Z,100.00
2023-02-02T16:16:54.580Z,100.00
2023-02-02T16:19:26.160Z,100.00
2023-02-02T16:21:59.681Z,100.00
2023-02-02T16:24:35.253Z,100.00
2023-02-02T16:27:08.286Z,100.00
2023-02-02T16:29:37.248Z,100.00
2023-02-02T16:32:06.872Z,100.00
2023-02-02T16:34:50.110Z,100.00
2023-02-02T16:37:27.332Z,100.00
2023-02-02T16:39:58.853Z,100.00
2023-02-02T16:42:31.794Z,100.00
2023-02-02T16:45:01.815Z,100.00
2023-02-02T16:47:39.871Z,100.00
2023-02-02T16:50:32.120Z,100.00
2023-02-02T16:53:05.037Z,100.00
2023-02-02T16:55:49.813Z,100.00
2023-02-02T16:58:24.518Z,100.00
2023-02-02T17:01:19.377Z,100.00
2023-02-02T17:03:54.205Z,100.00
2023-02-02T17:06:45.926Z,100.00
2023-02-02T17:09:34.742Z,100.00
2023-02-02T17:12:35.680Z,100.00
2023-02-02T17:15:29.124Z,100.00
2023-02-02T17:17:57.770Z,100.00
2023-02-02T17:20:27.453Z,100.00
2023-02-02T17:23:00.982Z,100.00
2023-02-02T17:25:38.238Z,100.00
2023-02-02T17:28:14.343Z,100.00
2023-02-02T17:30:44.506Z,100.00
2023-02-02T17:33:15.782Z,100.00
2023-02-02T17:35:55.752Z,100.00
2023-02-02T17:38:27.862Z,100.00
2023-02-02T17:41:01.309Z,100.00
2023-02-02T17:43:32.425Z,100.00
2023-02-02T17:46:04.769Z,100.00
2023-02-02T17:48:34.581Z,100.00
2023-02-02T17:51:09.615Z,100.00
2023-02-02T17:53:38.203Z,100.00
2023-02-02T17:56:07.597Z,100.00
2023-02-02T17:58:37.518Z,100.00
2023-02-02T18:01:07.342Z,100.00
2023-02-02T18:03:39.602Z,100.00
2023-02-02T18:06:08.935Z,100.00
2023-02-02T18:08:37.957Z,100.00
2023-02-02T18:11:06.812Z,100.00
2023-02-02T18:13:36.971Z,100.00
2023-02-02T18:16:08.414Z,100.00
2023-02-02T18:18:37.312Z,100.00
2023-02-02T18:21:10.679Z,100.00
2023-02-02T18:23:42.658Z,100.00
2023-02-02T18:26:19.727Z,100.00
2023-02-02T18:28:51.285Z,100.00
2023-02-02T18:31:24.037Z,100.00
2023-02-02T18:33:53.844Z,100.00
2023-02-02T18:36:23.924Z,100.00
2023-02-02T18:38:54.040Z,100.00
2023-02-02T18:41:22.884Z,100.00
2023-02-02T18:43:56.144Z,100.00
2023-02-02T18:46:24.904Z,100.00
2023-02-02T18:48:53.396Z,100.00
2023-02-02T18:51:22.327Z,100.00
2023-02-02T18:53:51.265Z,100.00
2023-02-02T18:56:22.618Z,100.00
2023-02-02T18:58:52.466Z,100.00
2023-02-02T19:01:23.463Z,100.00
2023-02-02T19:03:57.221Z,100.00
2023-02-02T19:06:44.337Z,100.00
2023-02-02T19:09:19.519Z,100.00
2023-02-02T19:11:55.034Z,100.00
2023-02-02T19:14:29.877Z,100.00
2023-02-02T19:17:09.871Z,100.00
2023-02-02T19:19:40.449Z,100.00
2023-02-02T19:22:20.972Z,100.00
2023-02-02T19:24:52.066Z,100.00
2023-02-02T19:27:26.678Z,100.00
2023-02-02T19:30:02.017Z,100.00
2023-02-02T19:32:34.929Z,100.00
2023-02-02T19:35:04.805Z,100.00
2023-02-02T19:37:40.113Z,100.00
2023-02-02T19:40:23.595Z,100.00
2023-02-02T19:42:58.810Z,100.00
2023-02-02T19:45:34.414Z,100.00
2023-02-02T19:48:16.769Z,100.00
2023-02-02T19:50:45.983Z,100.00
2023-02-02T19:53:21.784Z,100.00
2023-02-02T19:55:51.546Z,100.00
2023-02-02T19:58:23.468Z,100.00
2023-02-02T20:00:57.397Z,100.00
2023-02-02T20:03:30.131Z,100.00
2023-02-02T20:06:00.725Z,100.00
2023-02-02T20:08:39.720Z,100.00
2023-02-02T20:11:32.333Z,100.00
2023-02-02T20:14:03.029Z,100.00
2023-02-02T20:16:42.146Z,100.00
2023-02-02T20:19:23.842Z,100.00
2023-02-02T20:21:54.366Z,100.00
2023-02-02T20:24:28.217Z,100.00
2023-02-02T20:27:02.668Z,100.00
2023-02-02T20:29:44.145Z,100.00
2023-02-02T20:32:23.352Z,100.00
2023-02-02T20:34:52.662Z,100.00
2023-02-02T20:37:29.238Z,100.00
2023-02-02T20:40:01.517Z,100.00
2023-02-02T20:42:31.108Z,100.00
2023-02-02T20:45:00.047Z,100.00
2023-02-02T20:47:30.378Z,100.00
2023-02-02T20:50:01.703Z,100.00
2023-02-02T20:52:31.193Z,100.00
2023-02-02T20:54:59.879Z,100.00
2023-02-02T20:57:28.334Z,100.00
2023-02-02T20:59:57.765Z,100.00
2023-02-02T21:02:28.034Z,100.00
2023-02-02T21:04:57.810Z,100.00
2023-02-02T21:07:27.082Z,100.00
2023-02-02T21:09:55.699Z,100.00
2023-02-02T21:12:25.665Z,100.00
2023-02-02T21:14:55.077Z,100.00
2023-02-02T21:17:23.457Z,100.00
2023-02-02T21:19:52.078Z,100.00
2023-02-02T21:22:25.107Z,100.00
2023-02-02T21:24:53.607Z,100.00
2023-02-02T21:27:22.007Z,100.00
2023-02-02T21:29:51.088Z,100.00
2023-02-02T21:32:19.533Z,100.00
2023-02-02T21:34:47.983Z,100.00
2023-02-02T21:37:17.989Z,100.00
2023-02-02T21:39:51.128Z,100.00
2023-02-02T21:42:23.507Z,100.00
2023-02-02T21:44:57.720Z,100.00
2023-02-02T21:47:35.048Z,100.00
2023-02-02T21:50:16.670Z,100.00
2023-02-02T21:52:45.888Z,100.00
2023-02-02T21:55:36.844Z,100.00
2023-02-02T21:58:21.923Z,100.00
2023-02-02T22:00:51.237Z,100.00
2023-02-02T22:03:35.622Z,100.00
2023-02-02T22:06:28.783Z,100.00
2023-02-02T22:09:14.265Z,100.00
2023-02-02T22:11:49.235Z,100.00
2023-02-02T22:14:23.889Z,100.00
2023-02-02T22:16:57.665Z,100.00
2023-02-02T22:19:36.350Z,100.00
2023-02-02T22:22:16.214Z,100.00
2023-02-02T22:24:47.724Z,100.00
2023-02-02T22:27:25.885Z,100.00
2023-02-02T22:30:03.949Z,100.00
2023-02-02T22:32:32.259Z,100.00
2023-02-02T22:35:00.621Z,100.00
2023-02-02T22:37:28.933Z,100.00
2023-02-02T22:39:58.585Z,100.00
2023-02-02T22:42:30.043Z,100.00
2023-02-02T22:44:58.379Z,100.00
2023-02-02T22:47:26.853Z,100.00
2023-02-02T22:49:55.351Z,100.00
2023-02-02T22:52:23.736Z,100.00
2023-02-02T22:54:52.085Z,100.00
2023-02-02T22:57:21.686Z,100.00
2023-02-02T22:59:51.347Z,100.00
2023-02-02T23:02:22.786Z,100.00
2023-02-02T23:04:51.219Z,100.00
2023-02-02T23:07:20.718Z,100.00
2023-02-02T23:10:01.519Z,100.00
2023-02-02T23:12:30.378Z,100.00
2023-02-02T23:15:00.060Z,100.00
2023-02-02T23:17:28.686Z,100.00
2023-02-02T23:19:56.986Z,100.00
2023-02-02T23:22:25.519Z,100.00
2023-02-02T23:24:53.801Z,100.00
2023-02-02T23:27:26.242Z,100.00
2023-02-02T23:29:54.883Z,100.00
2023-02-02T23:32:24.581Z,100.00
2023-02-02T23:34:52.881Z,100.00
2023-02-02T23:37:21.926Z,100.00
2023-02-02T23:39:50.508Z,100.00
2023-02-02T23:42:21.489Z,100.00
2023-02-02T23:44:50.269Z,100.00
2023-02-02T23:47:19.309Z,100.00
2023-02-02T23:49:49.275Z,100.00
2023-02-02T23:52:19.587Z,100.00
2023-02-02T23:54:48.151Z,100.00
2023-02-02T23:57:16.783Z,100.00
2023-02-02T23:59:45.120Z,100.00
